createdAt,value
2024-01-28T00:01:36.623Z,93.95
2024-01-28T00:04:27.483Z,93.97
2024-01-28T00:07:18.245Z,93.96
2024-01-28T00:10:09.958Z,94.00
2024-01-28T00:13:00.769Z,93.98
2024-01-28T00:15:53.924Z,93.87
2024-01-28T00:18:45.420Z,93.96
2024-01-28T00:21:36.449Z,94.04
2024-01-28T00:24:29.261Z,94.05
2024-01-28T00:27:20.050Z,93.93
2024-01-28T00:30:11.694Z,94.06
2024-01-28T00:33:03.364Z,94.00
2024-01-28T00:35:54.348Z,94.10
2024-01-28T00:38:45.099Z,94.09
2024-01-28T00:41:38.052Z,94.11
2024-01-28T00:44:29.117Z,94.12
2024-01-28T00:47:19.822Z,94.11
2024-01-28T00:50:11.360Z,94.12
2024-01-28T00:53:02.251Z,94.16
2024-01-28T00:55:52.984Z,94.10
2024-01-28T00:58:44.968Z,94.12
2024-01-28T01:01:35.647Z,94.12
2024-01-28T01:04:26.422Z,94.22
2024-01-28T01:07:17.423Z,94.21
2024-01-28T01:10:09.844Z,94.22
2024-01-28T01:13:00.704Z,94.31
2024-01-28T01:15:51.431Z,94.35
2024-01-28T01:18:42.193Z,94.33
2024-01-28T01:21:33.058Z,94.27
2024-01-28T01:24:25.297Z,94.27
2024-01-28T01:27:16.143Z,94.25
2024-01-28T01:30:08.128Z,94.29
2024-01-28T01:32:58.979Z,94.21
2024-01-28T01:35:49.994Z,94.29
2024-01-28T01:38:40.807Z,94.26
2024-01-28T01:41:31.546Z,94.26
2024-01-28T01:44:22.300Z,94.29
2024-01-28T01:47:13.660Z,94.27
2024-01-28T01:50:05.663Z,94.24
2024-01-28T01:52:56.466Z,94.23
2024-01-28T01:55:47.298Z,94.21
2024-01-28T01:58:38.346Z,94.18
2024-01-28T02:01:31.231Z,94.16
2024-01-28T02:04:22.738Z,94.19
2024-01-28T02:07:13.667Z,94.13
2024-01-28T02:10:06.313Z,94.12
2024-01-28T02:12:57.133Z,94.14
2024-01-28T02:15:48.062Z,94.15
2024-01-28T02:18:39.024Z,94.11
2024-01-28T02:21:29.808Z,94.15
2024-01-28T02:24:21.228Z,94.18
2024-01-28T02:27:12.036Z,94.14
2024-01-28T02:30:03.623Z,94.15
2024-01-28T02:32:54.518Z,94.13
2024-01-28T02:35:45.338Z,94.13
2024-01-28T02:38:36.047Z,94.14
2024-01-28T02:41:26.787Z,94.21
2024-01-28T02:44:17.610Z,94.24
2024-01-28T02:47:08.459Z,94.32
2024-01-28T02:49:59.233Z,94.31
2024-01-28T02:52:50.297Z,94.26
2024-01-28T02:55:41.028Z,94.36
2024-01-28T02:58:32.062Z,94.37
2024-01-28T03:01:22.902Z,94.37
2024-01-28T03:04:15.071Z,94.42
2024-01-28T03:07:06.224Z,94.39
2024-01-28T03:09:56.981Z,94.40
2024-01-28T03:12:50.938Z,94.35
2024-01-28T03:15:41.821Z,94.31
2024-01-28T03:18:32.627Z,94.38
2024-01-28T03:21:23.362Z,94.44
2024-01-28T03:24:14.158Z,94.34
2024-01-28T03:27:05.487Z,94.40
2024-01-28T03:29:56.192Z,94.42
2024-01-28T03:32:51.040Z,94.39
2024-01-28T03:35:42.346Z,94.45
2024-01-28T03:38:33.099Z,94.48
2024-01-28T03:41:23.852Z,94.42
2024-01-28T03:44:20.657Z,94.43
2024-01-28T03:47:11.480Z,94.41
2024-01-28T03:50:02.859Z,94.47
2024-01-28T03:52:53.601Z,94.42
2024-01-28T03:55:46.685Z,94.48
2024-01-28T03:58:37.505Z,94.48
2024-01-28T04:01:35.362Z,94.46
2024-01-28T04:04:26.544Z,94.54
2024-01-28T04:07:17.457Z,94.52
2024-01-28T04:10:08.772Z,94.45
2024-01-28T04:12:59.528Z,94.63
2024-01-28T04:15:50.432Z,94.81
2024-01-28T04:18:41.346Z,94.95
2024-01-28T04:21:34.235Z,94.97
2024-01-28T04:24:25.033Z,95.05
2024-01-28T04:27:15.876Z,94.98
2024-01-28T04:30:07.820Z,94.96
2024-01-28T04:32:58.588Z,94.93
2024-01-28T04:35:49.413Z,94.89
2024-01-28T04:38:40.150Z,94.91
2024-01-28T04:41:30.964Z,94.87
2024-01-28T04:44:22.219Z,94.86
2024-01-28T04:47:12.970Z,94.88
2024-01-28T04:50:04.163Z,94.94
2024-01-28T04:52:54.912Z,94.95
2024-01-28T04:55:45.793Z,95.04
2024-01-28T04:58:36.603Z,95.02
2024-01-28T05:01:27.359Z,95.14
2024-01-28T05:04:18.204Z,95.08
2024-01-28T05:07:09.080Z,95.17
2024-01-28T05:09:59.804Z,95.22
2024-01-28T05:12:50.543Z,95.21
2024-01-28T05:15:42.068Z,95.16
2024-01-28T05:18:32.937Z,95.18
2024-01-28T05:21:26.976Z,95.17
2024-01-28T05:24:17.828Z,95.18
2024-01-28T05:27:09.965Z,95.22
2024-01-28T05:30:00.804Z,95.18
2024-01-28T05:32:51.662Z,95.11
2024-01-28T05:35:42.580Z,95.10
2024-01-28T05:38:33.283Z,95.13
2024-01-28T05:41:24.346Z,95.16
2024-01-28T05:44:15.144Z,95.12
2024-01-28T05:47:06.742Z,95.15
2024-01-28T05:49:57.689Z,95.12
2024-01-28T05:52:48.505Z,95.10
2024-01-28T05:55:39.228Z,95.16
2024-01-28T05:58:29.921Z,95.13
2024-01-28T06:01:20.860Z,95.11
2024-01-28T06:04:11.926Z,95.10
2024-01-28T06:07:02.937Z,95.09
2024-01-28T06:09:53.708Z,95.06
2024-01-28T06:12:44.583Z,95.07
2024-01-28T06:15:35.524Z,95.05
2024-01-28T06:18:26.471Z,94.97
2024-01-28T06:21:17.400Z,95.00
2024-01-28T06:24:08.392Z,95.02
2024-01-28T06:26:59.239Z,95.03
2024-01-28T06:29:50.592Z,94.99
2024-01-28T06:32:41.522Z,94.92
2024-01-28T06:35:32.389Z,94.98
2024-01-28T06:38:23.170Z,94.95
2024-01-28T06:41:15.762Z,94.97
2024-01-28T06:44:06.474Z,94.93
2024-01-28T06:46:57.179Z,94.90
2024-01-28T06:49:51.472Z,94.95
2024-01-28T06:52:43.976Z,94.88
2024-01-28T06:55:34.869Z,94.76
2024-01-28T06:58:25.691Z,94.78
2024-01-28T07:01:16.610Z,94.91
2024-01-28T07:04:07.742Z,94.89
2024-01-28T07:06:58.615Z,94.88
2024-01-28T07:09:49.516Z,94.82
2024-01-28T07:12:41.215Z,94.79
2024-01-28T07:15:32.041Z,94.76
2024-01-28T07:18:22.811Z,94.73
2024-01-28T07:21:14.407Z,94.71
2024-01-28T07:24:08.549Z,94.70
2024-01-28T07:27:00.118Z,94.77
2024-01-28T07:29:50.841Z,94.80
2024-01-28T07:32:41.589Z,94.80
2024-01-28T07:35:32.309Z,94.76
2024-01-28T07:38:23.017Z,94.81
2024-01-28T07:41:15.932Z,94.81
2024-01-28T07:44:06.725Z,94.77
2024-01-28T07:46:57.507Z,94.74
2024-01-28T07:49:48.388Z,94.72
2024-01-28T07:52:39.573Z,94.77
2024-01-28T07:55:30.411Z,94.80
2024-01-28T07:58:21.136Z,94.83
2024-01-28T08:01:11.909Z,94.78
2024-01-28T08:04:02.988Z,94.73
2024-01-28T08:06:53.858Z,94.70
2024-01-28T08:09:44.717Z,94.65
2024-01-28T08:12:35.497Z,94.75
2024-01-28T08:15:26.282Z,94.84
2024-01-28T08:18:17.239Z,94.81
2024-01-28T08:21:08.309Z,94.82
2024-01-28T08:23:59.072Z,94.82
2024-01-28T08:26:49.978Z,94.88
2024-01-28T08:29:40.663Z,94.85
2024-01-28T08:32:31.443Z,94.82
2024-01-28T08:35:22.777Z,94.76
2024-01-28T08:38:13.545Z,94.75
2024-01-28T08:41:04.954Z,94.81
2024-01-28T08:43:55.659Z,94.77
2024-01-28T08:46:47.518Z,94.84
2024-01-28T08:49:38.411Z,94.81
2024-01-28T08:52:29.257Z,94.68
2024-01-28T08:55:20.064Z,94.70
2024-01-28T08:58:10.780Z,94.61
2024-01-28T09:01:01.676Z,94.63
2024-01-28T09:03:52.817Z,94.65
2024-01-28T09:06:43.732Z,94.61
2024-01-28T09:09:34.573Z,94.63
2024-01-28T09:12:25.835Z,94.69
2024-01-28T09:15:16.770Z,94.67
2024-01-28T09:18:07.714Z,94.69
2024-01-28T09:21:00.189Z,94.72
2024-01-28T09:23:50.903Z,94.68
2024-01-28T09:26:42.940Z,94.70
2024-01-28T09:29:37.918Z,94.61
2024-01-28T09:32:28.818Z,94.57
2024-01-28T09:35:19.610Z,94.56
2024-01-28T09:38:10.396Z,94.61
2024-01-28T09:41:18.088Z,94.60
2024-01-28T09:44:10.892Z,94.55
2024-01-28T09:47:01.874Z,94.54
2024-01-28T09:49:53.879Z,94.48
2024-01-28T09:52:44.809Z,94.48
2024-01-28T09:55:35.546Z,94.40
2024-01-28T09:58:26.878Z,94.38
2024-01-28T10:04:08.605Z,94.43
2024-01-28T10:07:01.371Z,94.32
2024-01-28T10:09:52.290Z,94.34
2024-01-28T10:12:43.486Z,94.33
2024-01-28T10:15:34.543Z,94.30
2024-01-28T10:18:26.832Z,94.34
2024-01-28T10:21:17.818Z,94.22
2024-01-28T10:24:17.846Z,94.15
2024-01-28T10:27:08.675Z,94.22
2024-01-28T10:29:59.505Z,94.12
2024-01-28T10:32:50.316Z,94.02
2024-01-28T10:35:41.146Z,94.15
2024-01-28T10:38:33.741Z,94.17
2024-01-28T10:41:25.124Z,94.19
2024-01-28T10:44:17.192Z,94.27
2024-01-28T10:47:11.224Z,94.06
2024-01-28T10:50:09.147Z,93.97
2024-01-28T10:53:01.256Z,93.70
2024-01-28T10:55:52.385Z,93.70
2024-01-28T10:58:43.196Z,93.62
2024-01-28T11:01:35.675Z,93.49
2024-01-28T11:04:26.728Z,93.41
2024-01-28T11:07:17.588Z,93.06
2024-01-28T11:10:10.841Z,92.90
2024-01-28T11:13:05.361Z,92.89
2024-01-28T11:15:56.469Z,92.84
2024-01-28T11:19:01.685Z,92.78
2024-01-28T11:21:53.711Z,92.65
2024-01-28T11:24:54.222Z,92.53
2024-01-28T11:27:50.723Z,92.55
2024-01-28T11:30:41.764Z,92.57
2024-01-28T11:33:36.364Z,92.51
2024-01-28T11:36:29.958Z,92.46
2024-01-28T11:39:36.261Z,92.17
2024-01-28T11:42:27.208Z,92.04
2024-01-28T11:45:18.149Z,91.94
2024-01-28T11:48:11.443Z,91.85
2024-01-28T11:51:03.084Z,91.96
2024-01-28T11:53:53.880Z,91.94
2024-01-28T11:56:45.008Z,91.81
2024-01-28T11:59:36.653Z,91.78
2024-01-28T12:02:27.503Z,91.76
2024-01-28T12:05:18.380Z,91.82
2024-01-28T12:08:09.810Z,91.86
2024-01-28T12:11:04.368Z,91.89
2024-01-28T12:13:55.494Z,91.91
2024-01-28T12:16:46.463Z,91.84
2024-01-28T12:19:40.834Z,91.75
2024-01-28T12:22:38.913Z,91.58
2024-01-28T12:25:29.667Z,91.63
2024-01-28T12:28:24.185Z,91.47
2024-01-28T12:31:14.976Z,91.51
2024-01-28T12:34:16.850Z,91.37
2024-01-28T12:37:07.883Z,91.37
2024-01-28T12:40:00.281Z,91.34
2024-01-28T12:42:51.372Z,91.34
2024-01-28T12:45:43.123Z,91.38
2024-01-28T12:48:34.034Z,91.36
2024-01-28T12:51:24.911Z,91.36
2024-01-28T12:54:16.047Z,91.41
2024-01-28T12:57:07.106Z,91.36
2024-01-28T12:59:59.250Z,91.31
2024-01-28T13:02:50.106Z,91.33
2024-01-28T13:05:41.406Z,91.44
2024-01-28T13:08:32.221Z,91.52
2024-01-28T13:11:22.985Z,91.46
2024-01-28T13:14:16.068Z,91.51
2024-01-28T13:17:06.864Z,91.52
2024-01-28T13:19:57.767Z,91.49
2024-01-28T13:22:48.570Z,91.52
2024-01-28T13:25:39.293Z,91.33
2024-01-28T13:28:30.039Z,91.23
2024-01-28T13:31:20.760Z,91.24
2024-01-28T13:34:11.660Z,91.12
2024-01-28T13:37:03.497Z,91.08
2024-01-28T13:39:54.502Z,91.02
2024-01-28T13:42:45.313Z,91.02
2024-01-28T13:45:36.085Z,91.04
2024-01-28T13:48:27.307Z,91.04
2024-01-28T13:51:18.081Z,91.00
2024-01-28T13:54:08.835Z,90.90
2024-01-28T13:56:59.616Z,90.81
2024-01-28T13:59:50.659Z,90.81
2024-01-28T14:02:43.245Z,90.92
2024-01-28T14:05:37.462Z,90.85
2024-01-28T14:08:29.122Z,90.83
2024-01-28T14:11:19.817Z,90.86
2024-01-28T14:14:11.049Z,90.76
2024-01-28T14:17:01.850Z,90.68
2024-01-28T14:19:52.846Z,90.61
2024-01-28T14:22:43.703Z,90.63
2024-01-28T14:25:34.436Z,90.71
2024-01-28T14:28:25.503Z,90.73
2024-01-28T14:31:16.353Z,90.60
2024-01-28T14:34:07.224Z,90.54
2024-01-28T14:36:58.265Z,90.60
2024-01-28T14:39:51.033Z,90.62
2024-01-28T14:42:42.451Z,90.71
2024-01-28T14:45:33.638Z,90.78
2024-01-28T14:48:25.039Z,90.79
2024-01-28T14:51:15.915Z,90.67
2024-01-28T14:54:07.274Z,90.80
2024-01-28T14:56:58.108Z,90.90
2024-01-28T14:59:49.226Z,90.85
2024-01-28T15:02:40.345Z,90.96
2024-01-28T15:05:31.110Z,91.00
2024-01-28T15:08:22.027Z,91.03
2024-01-28T15:11:12.747Z,91.09
2024-01-28T15:14:03.524Z,91.03
2024-01-28T15:16:54.320Z,91.11
2024-01-28T15:19:45.844Z,91.12
2024-01-28T15:22:36.958Z,91.17
2024-01-28T15:25:27.691Z,91.20
2024-01-28T15:28:24.897Z,91.22
2024-01-28T15:31:16.912Z,91.23
2024-01-28T15:34:07.797Z,91.25
2024-01-28T15:36:58.641Z,91.33
2024-01-28T15:39:49.673Z,91.52
2024-01-28T15:42:40.709Z,91.54
2024-01-28T15:45:31.626Z,91.61
2024-01-28T15:48:23.357Z,91.65
2024-01-28T15:51:14.259Z,91.73
2024-01-28T15:54:05.158Z,91.79
2024-01-28T15:56:56.014Z,91.77
2024-01-28T15:59:54.893Z,91.85
2024-01-28T16:02:51.367Z,91.94
2024-01-28T16:05:42.466Z,91.98
2024-01-28T16:08:33.267Z,92.07
2024-01-28T16:11:24.192Z,92.09
2024-01-28T16:14:14.887Z,92.05
2024-01-28T16:17:05.674Z,92.08
2024-01-28T16:19:56.680Z,92.05
2024-01-28T16:22:47.402Z,92.05
2024-01-28T16:25:38.084Z,92.15
2024-01-28T16:28:28.858Z,92.22
2024-01-28T16:31:21.155Z,92.21
2024-01-28T16:34:12.221Z,92.36
2024-01-28T16:37:04.526Z,92.39
2024-01-28T16:39:55.318Z,92.44
2024-01-28T16:42:48.071Z,92.42
2024-01-28T16:45:38.946Z,92.47
2024-01-28T16:48:30.120Z,92.51
2024-01-28T16:51:20.982Z,92.54
2024-01-28T16:54:11.744Z,92.63
2024-01-28T16:57:02.499Z,92.73
2024-01-28T16:59:53.220Z,92.78
2024-01-28T17:02:43.977Z,92.78
2024-01-28T17:05:34.806Z,92.81
2024-01-28T17:08:26.671Z,92.79
2024-01-28T17:11:17.383Z,92.79
2024-01-28T17:14:09.291Z,92.82
2024-01-28T17:17:00.329Z,92.91
2024-01-28T17:19:51.045Z,92.97
2024-01-28T17:22:41.721Z,93.01
2024-01-28T17:25:32.546Z,93.04
2024-01-28T17:28:23.599Z,93.02
2024-01-28T17:31:14.328Z,92.93
2024-01-28T17:34:05.566Z,92.97
2024-01-28T17:36:56.876Z,93.08
2024-01-28T17:39:47.699Z,93.06
2024-01-28T17:42:38.552Z,93.05
2024-01-28T17:45:29.369Z,93.12
2024-01-28T17:48:21.043Z,93.12
2024-01-28T17:51:12.107Z,93.16
2024-01-28T17:54:02.894Z,93.26
2024-01-28T17:56:53.640Z,93.25
2024-01-28T17:59:44.494Z,93.27
2024-01-28T18:02:35.296Z,93.34
2024-01-28T18:05:26.037Z,93.37
2024-01-28T18:08:18.928Z,93.32
2024-01-28T18:11:09.638Z,93.29
2024-01-28T18:14:00.448Z,93.24
2024-01-28T18:16:51.361Z,93.16
2024-01-28T18:19:42.069Z,93.16
2024-01-28T18:22:33.817Z,93.17
2024-01-28T18:25:25.571Z,93.18
2024-01-28T18:28:16.372Z,93.24
2024-01-28T18:31:07.291Z,93.21
2024-01-28T18:33:58.073Z,93.18
2024-01-28T18:36:49.462Z,93.16
2024-01-28T18:39:43.230Z,93.21
2024-01-28T18:42:34.848Z,93.23
2024-01-28T18:45:26.440Z,93.18
2024-01-28T18:48:21.007Z,93.08
2024-01-28T18:51:15.564Z,93.06
2024-01-28T18:54:06.305Z,92.93
2024-01-28T18:56:57.301Z,92.95
2024-01-28T18:59:47.990Z,92.94
2024-01-28T19:02:38.767Z,92.87
2024-01-28T19:05:30.156Z,92.99
2024-01-28T19:08:22.023Z,93.00
2024-01-28T19:11:13.538Z,92.93
2024-01-28T19:14:04.604Z,92.97
2024-01-28T19:16:55.383Z,92.81
2024-01-28T19:19:46.228Z,92.95
2024-01-28T19:22:37.253Z,92.82
2024-01-28T19:25:28.123Z,92.75
2024-01-28T19:28:19.266Z,92.69
2024-01-28T19:31:10.650Z,92.93
2024-01-28T19:34:01.634Z,92.87
2024-01-28T19:36:52.579Z,92.88
2024-01-28T19:39:43.318Z,92.72
2024-01-28T19:42:34.172Z,92.73
2024-01-28T19:45:24.935Z,92.81
2024-01-28T19:48:16.559Z,92.88
2024-01-28T19:51:07.712Z,92.92
2024-01-28T19:53:58.457Z,92.80
2024-01-28T19:56:49.557Z,92.92
2024-01-28T19:59:40.273Z,92.81
2024-01-28T20:02:30.969Z,92.68
2024-01-28T20:05:22.633Z,92.67
2024-01-28T20:08:13.350Z,92.81
2024-01-28T20:11:04.309Z,92.77
2024-01-28T20:13:55.145Z,92.79
2024-01-28T20:16:46.449Z,92.75
2024-01-28T20:19:37.463Z,92.81
2024-01-28T20:22:28.274Z,92.81
2024-01-28T20:25:19.170Z,92.89
2024-01-28T20:28:12.513Z,92.86
2024-01-28T20:31:03.563Z,92.92
2024-01-28T20:33:54.501Z,92.88
2024-01-28T20:36:45.493Z,92.99
2024-01-28T20:39:36.325Z,92.99
2024-01-28T20:42:29.269Z,92.94
2024-01-28T20:45:20.482Z,92.83
2024-01-28T20:48:11.340Z,92.79
2024-01-28T20:51:02.126Z,92.85
2024-01-28T20:53:52.995Z,92.92
2024-01-28T20:56:43.779Z,92.87
2024-01-28T20:59:38.087Z,92.89
2024-01-28T21:02:28.854Z,92.73
2024-01-28T21:05:19.920Z,92.67
2024-01-28T21:08:12.112Z,92.67
2024-01-28T21:11:08.100Z,92.73
2024-01-28T21:13:58.905Z,92.66
2024-01-28T21:16:49.750Z,92.69
2024-01-28T21:19:40.603Z,92.83
2024-01-28T21:22:31.404Z,92.90
2024-01-28T21:25:22.206Z,92.81
2024-01-28T21:28:12.940Z,92.76
2024-01-28T21:31:04.188Z,92.89
2024-01-28T21:33:55.262Z,92.93
2024-01-28T21:36:47.598Z,92.99
2024-01-28T21:39:38.450Z,93.10
2024-01-28T21:42:29.319Z,93.11
2024-01-28T21:45:20.112Z,93.05
2024-01-28T21:48:11.113Z,93.11
2024-01-28T21:51:01.899Z,93.14
2024-01-28T21:53:52.924Z,93.24
2024-01-28T21:56:44.024Z,93.25
2024-01-28T21:59:34.757Z,93.18
2024-01-28T22:02:25.534Z,93.19
2024-01-28T22:05:16.305Z,93.12
2024-01-28T22:08:07.559Z,93.07
2024-01-28T22:10:58.390Z,93.07
2024-01-28T22:13:49.205Z,93.03
2024-01-28T22:16:40.215Z,93.12
2024-01-28T22:19:31.018Z,93.17
2024-01-28T22:22:21.835Z,93.18
2024-01-28T22:25:13.705Z,93.24
2024-01-28T22:28:05.335Z,93.17
2024-01-28T22:30:56.225Z,93.21
2024-01-28T22:33:47.215Z,93.19
2024-01-28T22:36:38.056Z,93.17
2024-01-28T22:39:28.907Z,93.23
2024-01-28T22:42:19.847Z,93.23
2024-01-28T22:45:11.396Z,93.29
2024-01-28T22:48:02.838Z,93.26
2024-01-28T22:50:53.806Z,93.37
2024-01-28T22:53:44.762Z,93.37
2024-01-28T22:56:35.491Z,93.34
2024-01-28T22:59:26.196Z,93.29
2024-01-28T23:02:25.770Z,93.30
2024-01-28T23:05:16.653Z,93.29
2024-01-28T23:08:08.001Z,93.19
2024-01-28T23:10:58.998Z,93.21
2024-01-28T23:13:49.773Z,93.20
2024-01-28T23:16:40.602Z,93.14
2024-01-28T23:19:31.377Z,92.96
2024-01-28T23:22:22.179Z,92.88
2024-01-28T23:25:13.819Z,92.82
2024-01-28T23:28:04.957Z,92.77
2024-01-28T23:30:55.780Z,92.74
2024-01-28T23:33:46.697Z,92.73
2024-01-28T23:36:37.582Z,92.74
2024-01-28T23:39:28.416Z,92.65
2024-01-28T23:42:19.651Z,92.46
2024-01-28T23:45:10.791Z,92.40
2024-01-28T23:48:01.935Z,92.33
2024-01-28T23:50:52.762Z,92.37
2024-01-28T23:53:43.939Z,92.30
2024-01-28T23:56:34.676Z,92.32
2024-01-28T23:59:25.503Z,92.23
